createdAt,value
2023-04-02T00:00:30.442Z,0.80
2023-04-02T00:03:11.253Z,0.75
2023-04-02T00:05:50.698Z,1.10
2023-04-02T00:08:28.969Z,0.70
2023-04-02T00:10:58.602Z,0.77
2023-04-02T00:13:34.659Z,0.80
2023-04-02T00:16:03.484Z,0.80
2023-04-02T00:18:31.218Z,0.80
2023-04-02T00:21:01.106Z,0.93
2023-04-02T00:23:29.010Z,0.93
2023-04-02T00:25:56.219Z,0.80
2023-04-02T00:28:24.158Z,0.75
2023-04-02T00:30:53.756Z,0.75
2023-04-02T00:33:22.304Z,0.60
2023-04-02T00:35:50.860Z,0.77
2023-04-02T00:38:34.327Z,0.80
2023-04-02T00:41:03.293Z,0.70
2023-04-02T00:45:58.802Z,0.70
2023-04-02T00:48:31.913Z,0.60
2023-04-02T00:51:01.934Z,0.70
2023-04-02T00:53:30.449Z,0.70
2023-04-02T00:55:59.274Z,0.80
2023-04-02T00:58:31.172Z,0.80
2023-04-02T01:00:59.482Z,0.80
2023-04-02T01:03:29.167Z,0.65
2023-04-02T01:06:05.236Z,0.70
2023-04-02T01:08:50.810Z,0.80
2023-04-02T01:11:17.943Z,0.70
2023-04-02T01:13:57.153Z,0.80
2023-04-02T01:16:24.368Z,0.55
2023-04-02T01:18:51.506Z,0.70
2023-04-02T01:21:21.978Z,0.63
2023-04-02T01:24:01.772Z,0.77
2023-04-02T01:26:47.947Z,0.82
2023-04-02T01:29:15.108Z,0.85
2023-04-02T01:31:42.836Z,0.70
2023-04-02T01:34:12.399Z,0.70
2023-04-02T01:36:58.277Z,0.93
2023-04-02T01:39:25.379Z,0.50
2023-04-02T01:41:52.464Z,0.60
2023-04-02T01:44:23.509Z,0.85
2023-04-02T01:46:50.772Z,0.68
2023-04-02T01:49:20.532Z,1.10
2023-04-02T01:51:53.055Z,0.73
2023-04-02T01:54:20.860Z,0.80
2023-04-02T01:56:48.435Z,0.90
2023-04-02T01:59:22.184Z,0.70
2023-04-02T02:01:52.531Z,0.90
2023-04-02T02:04:20.034Z,0.60
2023-04-02T02:06:47.935Z,0.88
2023-04-02T02:09:23.070Z,0.80
2023-04-02T02:11:50.955Z,0.80
2023-04-02T02:14:23.217Z,0.85
2023-04-02T02:16:50.768Z,0.85
2023-04-02T02:19:20.894Z,0.82
2023-04-02T02:21:50.688Z,0.80
2023-04-02T02:24:25.904Z,0.60
2023-04-02T02:27:11.919Z,0.77
2023-04-02T02:29:41.023Z,0.90
2023-04-02T02:32:10.065Z,0.85
2023-04-02T02:37:11.362Z,0.70
2023-04-02T02:39:40.783Z,0.90
2023-04-02T02:42:27.271Z,0.80
2023-04-02T02:44:55.777Z,0.70
2023-04-02T02:47:25.859Z,1.00
2023-04-02T02:49:59.074Z,1.00
2023-04-02T02:52:27.699Z,1.02
2023-04-02T02:55:00.388Z,0.98
2023-04-02T02:57:30.933Z,0.90
2023-04-02T02:59:59.537Z,1.10
2023-04-02T03:02:28.268Z,1.00
2023-04-02T03:04:56.357Z,1.00
2023-04-02T03:07:25.631Z,0.75
2023-04-02T03:10:02.076Z,0.88
2023-04-02T03:12:29.349Z,1.00
2023-04-02T03:15:02.933Z,0.88
2023-04-02T03:17:30.047Z,1.00
2023-04-02T03:20:01.511Z,0.90
2023-04-02T03:22:35.998Z,1.10
2023-04-02T03:25:07.106Z,1.00
2023-04-02T03:27:40.560Z,0.95
2023-04-02T03:30:07.881Z,1.20
2023-04-02T03:32:38.423Z,1.00
2023-04-02T03:35:11.332Z,0.95
2023-04-02T03:37:48.941Z,0.77
2023-04-02T03:40:16.064Z,1.25
2023-04-02T03:42:46.300Z,1.10
2023-04-02T03:45:18.908Z,0.88
2023-04-02T03:47:50.429Z,1.00
2023-04-02T03:50:26.627Z,0.90
2023-04-02T03:52:53.780Z,0.90
2023-04-02T03:55:29.210Z,0.80
2023-04-02T03:57:56.438Z,0.95
2023-04-02T04:00:30.839Z,1.15
2023-04-02T04:03:00.609Z,0.98
2023-04-02T04:05:36.283Z,1.00
2023-04-02T04:08:08.687Z,1.00
2023-04-02T04:10:36.317Z,1.10
2023-04-02T04:13:06.970Z,1.20
2023-04-02T04:15:54.970Z,1.20
2023-04-02T04:18:34.613Z,0.73
2023-04-02T04:21:07.475Z,1.08
2023-04-02T04:23:36.757Z,0.90
2023-04-02T04:26:25.244Z,0.85
2023-04-02T04:29:05.507Z,1.00
2023-04-02T04:31:39.592Z,0.95
2023-04-02T04:34:11.114Z,0.88
2023-04-02T04:36:54.242Z,1.05
2023-04-02T04:39:29.589Z,0.98
2023-04-02T04:44:25.357Z,1.17
2023-04-02T04:47:08.874Z,1.10
2023-04-02T04:49:50.882Z,1.05
2023-04-02T04:52:34.406Z,1.13
2023-04-02T04:55:01.809Z,1.10
2023-04-02T04:57:36.004Z,0.93
2023-04-02T05:00:09.320Z,1.10
2023-04-02T05:02:41.796Z,0.90
2023-04-02T05:05:18.101Z,1.20
2023-04-02T05:07:53.777Z,1.10
2023-04-02T05:10:28.125Z,0.95
2023-04-02T05:12:57.734Z,1.00
2023-04-02T05:15:27.714Z,1.10
2023-04-02T05:18:13.587Z,0.90
2023-04-02T05:20:43.667Z,1.02
2023-04-02T05:23:16.182Z,0.80
2023-04-02T05:26:12.553Z,1.10
2023-04-02T05:28:44.752Z,1.23
2023-04-02T05:31:15.157Z,1.05
2023-04-02T05:33:46.052Z,1.10
2023-04-02T05:36:19.055Z,1.20
2023-04-02T05:38:47.713Z,1.20
2023-04-02T05:41:23.714Z,1.67
2023-04-02T05:43:57.558Z,1.00
2023-04-02T05:46:32.938Z,1.40
2023-04-02T05:49:01.659Z,1.30
2023-04-02T05:51:32.090Z,1.45
2023-04-02T05:54:03.920Z,1.30
2023-04-02T05:56:33.142Z,1.55
2023-04-02T05:59:12.130Z,1.42
2023-04-02T06:01:45.330Z,1.98
2023-04-02T06:04:18.226Z,1.60
2023-04-02T06:06:47.582Z,1.80
2023-04-02T06:09:33.628Z,2.17
2023-04-02T06:12:17.647Z,2.17
2023-04-02T06:14:45.424Z,1.70
2023-04-02T06:17:15.225Z,1.83
2023-04-02T06:19:42.783Z,2.15
2023-04-02T06:22:20.270Z,1.80
2023-04-02T06:24:50.932Z,1.77
2023-04-02T06:27:20.116Z,2.08
2023-04-02T06:29:48.577Z,1.83
2023-04-02T06:32:15.888Z,2.22
2023-04-02T06:34:43.727Z,2.03
2023-04-02T06:37:26.079Z,1.60
2023-04-02T06:39:53.188Z,1.90
2023-04-02T06:42:22.379Z,1.55
2023-04-02T06:44:50.793Z,1.70
2023-04-02T06:47:36.497Z,1.48
2023-04-02T06:50:04.041Z,1.50
2023-04-02T06:52:41.403Z,1.63
2023-04-02T06:55:28.874Z,1.65
2023-04-02T06:57:56.180Z,1.45
2023-04-02T07:00:26.343Z,1.40
2023-04-02T07:02:54.738Z,1.73
2023-04-02T07:05:24.036Z,1.38
2023-04-02T07:07:51.297Z,1.83
2023-04-02T07:10:20.309Z,1.58
2023-04-02T07:12:47.813Z,1.50
2023-04-02T07:15:16.142Z,1.60
2023-04-02T07:17:43.789Z,1.63
2023-04-02T07:20:31.023Z,1.58
2023-04-02T07:22:58.281Z,1.30
2023-04-02T07:25:26.257Z,1.48
2023-04-02T07:27:53.695Z,1.20
2023-04-02T07:30:20.874Z,1.83
2023-04-02T07:32:48.141Z,1.25
2023-04-02T07:35:15.423Z,1.27
2023-04-02T07:37:42.592Z,1.30
2023-04-02T07:40:20.710Z,1.48
2023-04-02T07:42:48.315Z,1.52
2023-04-02T07:45:16.066Z,1.58
2023-04-02T07:47:43.795Z,1.10
2023-04-02T07:50:11.185Z,1.15
2023-04-02T07:52:42.604Z,1.38
2023-04-02T07:55:12.536Z,1.20
2023-04-02T07:57:43.662Z,1.20
2023-04-02T08:00:12.429Z,1.10
2023-04-02T08:02:39.588Z,1.27
2023-04-02T08:05:07.730Z,1.20
2023-04-02T08:07:34.936Z,1.30
2023-04-02T08:10:02.602Z,1.30
2023-04-02T08:12:29.812Z,1.30
2023-04-02T08:14:58.481Z,1.20
2023-04-02T08:17:26.877Z,1.17
2023-04-02T08:19:56.000Z,1.30
2023-04-02T08:22:23.136Z,1.42
2023-04-02T08:24:50.432Z,1.52
2023-04-02T08:27:17.545Z,1.33
2023-04-02T08:29:44.704Z,1.10
2023-04-02T08:32:17.724Z,1.30
2023-04-02T08:34:45.464Z,1.35
2023-04-02T08:37:13.164Z,1.30
2023-04-02T08:39:41.184Z,1.20
2023-04-02T08:42:26.754Z,1.00
2023-04-02T08:44:56.736Z,1.30
2023-04-02T08:47:29.932Z,2.10
2023-04-02T08:50:00.870Z,1.10
2023-04-02T08:52:31.380Z,1.10
2023-04-02T08:55:00.443Z,1.20
2023-04-02T08:57:32.612Z,1.55
2023-04-02T09:00:02.560Z,1.10
2023-04-02T09:02:38.412Z,1.20
2023-04-02T09:05:07.968Z,1.23
2023-04-02T09:07:35.404Z,1.08
2023-04-02T09:10:02.752Z,1.23
2023-04-02T09:12:31.801Z,1.20
2023-04-02T09:15:11.140Z,0.93
2023-04-02T09:17:50.613Z,1.00
2023-04-02T09:20:23.996Z,1.00
2023-04-02T09:22:52.025Z,1.00
2023-04-02T09:25:34.311Z,1.17
2023-04-02T09:28:02.768Z,1.38
2023-04-02T09:30:29.934Z,1.30
2023-04-02T09:32:57.211Z,1.00
2023-04-02T09:35:27.065Z,0.93
2023-04-02T09:38:12.821Z,1.13
2023-04-02T09:40:47.487Z,1.00
2023-04-02T09:43:19.148Z,1.20
2023-04-02T09:45:56.162Z,0.93
2023-04-02T09:48:26.481Z,1.00
2023-04-02T09:51:13.551Z,1.00
2023-04-02T09:53:42.783Z,1.05
2023-04-02T09:56:13.108Z,1.10
2023-04-02T09:58:41.118Z,0.90
2023-04-02T10:01:24.302Z,1.10
2023-04-02T10:03:51.974Z,1.10
2023-04-02T10:06:19.259Z,1.05
2023-04-02T10:08:47.085Z,1.10
2023-04-02T10:11:15.724Z,1.10
2023-04-02T10:14:02.588Z,1.00
2023-04-02T10:16:33.166Z,1.27
2023-04-02T10:19:08.636Z,1.05
2023-04-02T10:21:39.032Z,0.90
2023-04-02T10:24:11.559Z,0.90
2023-04-02T10:27:17.390Z,1.10
2023-04-02T10:32:20.901Z,0.90
2023-04-02T10:34:57.081Z,1.00
2023-04-02T10:37:44.537Z,1.45
2023-04-02T10:43:05.013Z,1.23
2023-04-02T10:45:51.614Z,1.00
2023-04-02T10:48:30.921Z,0.90
2023-04-02T10:51:33.539Z,1.10
2023-04-02T10:54:06.534Z,1.17
2023-04-02T10:56:44.221Z,0.90
2023-04-02T10:59:18.948Z,0.90
2023-04-02T11:01:47.401Z,1.02
2023-04-02T11:04:22.737Z,0.88
2023-04-02T11:06:58.088Z,0.95
2023-04-02T11:09:33.075Z,1.20
2023-04-02T11:12:01.616Z,1.05
2023-04-02T11:14:30.126Z,0.90
2023-04-02T11:17:00.784Z,0.80
2023-04-02T11:19:27.892Z,1.00
2023-04-02T11:22:01.334Z,0.98
2023-04-02T11:24:37.300Z,1.50
2023-04-02T11:27:05.974Z,0.90
2023-04-02T11:29:34.622Z,0.90
2023-04-02T11:32:20.179Z,0.90
2023-04-02T11:35:03.000Z,1.10
2023-04-02T11:37:36.631Z,0.90
2023-04-02T11:40:23.750Z,1.00
2023-04-02T11:42:52.723Z,1.10
2023-04-02T11:48:08.365Z,1.00
2023-04-02T11:50:37.647Z,0.93
2023-04-02T11:53:06.886Z,0.90
2023-04-02T11:55:35.417Z,1.38
2023-04-02T11:58:11.659Z,0.90
2023-04-02T12:00:56.890Z,0.65
2023-04-02T12:03:30.076Z,0.80
2023-04-02T12:05:58.901Z,0.70
2023-04-02T12:08:57.511Z,0.80
2023-04-02T12:11:36.921Z,0.75
2023-04-02T12:14:30.467Z,0.95
2023-04-02T12:16:58.156Z,1.00
2023-04-02T12:19:25.856Z,0.93
2023-04-02T12:21:54.327Z,1.00
2023-04-02T12:24:22.750Z,1.05
2023-04-02T12:26:49.916Z,1.05
2023-04-02T12:29:17.049Z,0.80
2023-04-02T12:31:45.325Z,0.82
2023-04-02T12:34:19.296Z,0.90
2023-04-02T12:36:56.644Z,0.70
2023-04-02T12:39:26.665Z,0.77
2023-04-02T12:41:55.293Z,0.90
2023-04-02T12:44:23.856Z,0.93
2023-04-02T12:46:52.338Z,0.90
2023-04-02T12:49:28.393Z,0.80
2023-04-02T12:51:55.913Z,0.75
2023-04-02T12:54:23.593Z,0.93
2023-04-02T12:56:51.389Z,0.80
2023-04-02T12:59:27.193Z,0.90
2023-04-02T13:01:59.139Z,0.70
2023-04-02T13:04:26.661Z,1.10
2023-04-02T13:06:58.394Z,0.70
2023-04-02T13:09:36.937Z,1.10
2023-04-02T13:12:04.261Z,0.73
2023-04-02T13:14:31.717Z,0.88
2023-04-02T13:16:58.919Z,0.77
2023-04-02T13:19:26.096Z,0.73
2023-04-02T13:21:53.948Z,0.80
2023-04-02T13:24:22.633Z,0.90
2023-04-02T13:26:50.385Z,0.90
2023-04-02T13:29:23.394Z,0.80
2023-04-02T13:31:51.129Z,0.63
2023-04-02T13:34:18.365Z,0.70
2023-04-02T13:36:45.878Z,0.90
2023-04-02T13:39:13.016Z,0.70
2023-04-02T13:41:42.310Z,0.70
2023-04-02T13:44:15.637Z,0.73
2023-04-02T13:46:42.838Z,0.85
2023-04-02T13:49:10.950Z,0.80
2023-04-02T13:52:05.286Z,0.80
2023-04-02T13:54:53.127Z,0.75
2023-04-02T13:57:20.627Z,0.73
2023-04-02T13:59:47.822Z,0.88
2023-04-02T14:02:18.046Z,0.90
2023-04-02T14:05:02.362Z,0.90
2023-04-02T14:07:41.783Z,0.85
2023-04-02T14:10:17.826Z,0.80
2023-04-02T14:12:59.514Z,0.88
2023-04-02T14:15:45.633Z,1.02
2023-04-02T14:18:18.839Z,1.02
2023-04-02T14:21:12.368Z,0.98
2023-04-02T14:26:06.511Z,0.90
2023-04-02T14:28:38.150Z,0.82
2023-04-02T14:31:14.227Z,0.70
2023-04-02T14:33:51.190Z,0.88
2023-04-02T14:36:24.331Z,0.90
2023-04-02T14:38:56.788Z,0.98
2023-04-02T14:41:23.983Z,0.95
2023-04-02T14:44:02.446Z,1.17
2023-04-02T14:46:31.231Z,1.10
2023-04-02T14:49:17.538Z,1.13
2023-04-02T14:51:47.663Z,1.10
2023-04-02T14:54:33.241Z,1.10
2023-04-02T14:57:21.359Z,1.25
2023-04-02T15:00:03.917Z,1.27
2023-04-02T15:02:35.919Z,1.77
2023-04-02T15:05:06.690Z,1.38
2023-04-02T15:07:39.564Z,1.30
2023-04-02T15:10:23.320Z,0.98
2023-04-02T15:12:51.793Z,1.02
2023-04-02T15:15:39.266Z,1.30
2023-04-02T15:18:13.464Z,1.20
2023-04-02T15:20:44.302Z,1.10
2023-04-02T15:23:29.646Z,1.20
2023-04-02T15:26:04.124Z,1.67
2023-04-02T15:28:35.661Z,1.63
2023-04-02T15:31:07.298Z,1.55
2023-04-02T15:33:44.944Z,1.52
2023-04-02T15:36:32.575Z,1.10
2023-04-02T15:39:08.661Z,1.20
2023-04-02T15:41:40.919Z,1.08
2023-04-02T15:44:15.421Z,1.55
2023-04-02T15:47:01.428Z,1.50
2023-04-02T15:49:41.178Z,1.30
2023-04-02T15:52:33.284Z,1.42
2023-04-02T15:55:10.613Z,1.30
2023-04-02T15:57:51.119Z,1.33
2023-04-02T16:00:18.210Z,1.40
2023-04-02T16:03:05.934Z,1.48
2023-04-02T16:05:51.811Z,1.40
2023-04-02T16:08:31.233Z,1.38
2023-04-02T16:10:58.557Z,1.35
2023-04-02T16:13:32.774Z,1.05
2023-04-02T16:16:02.972Z,1.27
2023-04-02T16:18:45.404Z,1.33
2023-04-02T16:21:18.778Z,1.20
2023-04-02T16:23:45.996Z,1.33
2023-04-02T16:26:31.680Z,1.33
2023-04-02T16:29:07.990Z,1.27
2023-04-02T16:31:53.976Z,0.93
2023-04-02T16:34:22.106Z,1.40
2023-04-02T16:36:49.167Z,1.30
2023-04-02T16:39:24.091Z,1.55
2023-04-02T16:41:51.233Z,1.20
2023-04-02T16:44:37.149Z,1.20
2023-04-02T16:47:10.239Z,1.63
2023-04-02T16:49:58.482Z,1.40
2023-04-02T16:52:37.530Z,1.67
2023-04-02T16:55:04.716Z,1.40
2023-04-02T16:57:42.361Z,1.20
2023-04-02T17:00:24.444Z,1.30
2023-04-02T17:03:10.465Z,1.30
2023-04-02T17:05:47.847Z,1.27
2023-04-02T17:08:23.466Z,1.38
2023-04-02T17:10:51.920Z,1.35
2023-04-02T17:13:34.460Z,1.17
2023-04-02T17:16:01.752Z,1.00
2023-04-02T17:18:28.966Z,1.30
2023-04-02T17:20:58.626Z,1.02
2023-04-02T17:23:27.019Z,1.17
2023-04-02T17:25:59.649Z,0.90
2023-04-02T17:28:29.594Z,1.30
2023-04-02T17:30:58.355Z,1.15
2023-04-02T17:33:27.372Z,1.13
2023-04-02T17:35:54.561Z,1.20
2023-04-02T17:38:40.390Z,1.13
2023-04-02T17:41:08.004Z,1.20
2023-04-02T17:43:53.788Z,1.10
2023-04-02T17:46:24.194Z,1.20
2023-04-02T17:49:00.710Z,1.70
2023-04-02T17:51:52.891Z,1.40
2023-04-02T17:54:25.741Z,1.65
2023-04-02T17:56:58.831Z,1.70
2023-04-02T17:59:27.013Z,1.80
2023-04-02T18:02:21.646Z,1.73
2023-04-02T18:04:54.757Z,1.67
2023-04-02T18:07:28.104Z,1.27
2023-04-02T18:10:03.798Z,1.63
2023-04-02T18:12:39.924Z,1.42
2023-04-02T18:15:23.762Z,1.80
2023-04-02T18:17:50.978Z,1.48
2023-04-02T18:20:25.673Z,1.98
2023-04-02T18:23:12.837Z,1.90
2023-04-02T18:25:43.000Z,2.92
2023-04-02T18:28:28.682Z,1.58
2023-04-02T18:31:02.185Z,1.67
2023-04-02T18:33:36.793Z,1.35
2023-04-02T18:36:05.279Z,1.25
2023-04-02T18:38:38.908Z,1.60
2023-04-02T18:41:15.788Z,1.65
2023-04-02T18:44:01.868Z,1.50
2023-04-02T18:46:38.227Z,1.50
2023-04-02T18:49:21.061Z,1.77
2023-04-02T18:51:51.944Z,1.30
2023-04-02T18:54:48.392Z,1.00
2023-04-02T18:57:19.565Z,1.67
2023-04-02T18:59:51.919Z,1.15
2023-04-02T19:02:36.136Z,1.13
2023-04-02T19:05:23.568Z,1.50
2023-04-02T19:07:52.556Z,1.35
2023-04-02T19:12:46.968Z,0.98
2023-04-02T19:15:15.370Z,1.30
2023-04-02T19:18:13.853Z,1.30
2023-04-02T19:21:00.374Z,1.50
2023-04-02T19:23:30.352Z,1.58
2023-04-02T19:26:02.696Z,1.00
2023-04-02T19:28:47.775Z,1.10
2023-04-02T19:31:34.172Z,1.58
2023-04-02T19:34:10.203Z,1.15
2023-04-02T19:36:54.732Z,1.00
2023-04-02T19:39:40.972Z,1.35
2023-04-02T19:42:20.360Z,0.90
2023-04-02T19:44:49.380Z,1.13
2023-04-02T19:49:43.717Z,1.10
2023-04-02T19:52:11.020Z,1.20
2023-04-02T19:54:38.769Z,1.38
2023-04-02T19:57:06.246Z,0.95
2023-04-02T19:59:33.587Z,1.25
2023-04-02T20:02:04.194Z,1.40
2023-04-02T20:04:31.357Z,1.27
2023-04-02T20:06:58.576Z,1.00
2023-04-02T20:09:26.154Z,1.10
2023-04-02T20:11:53.274Z,1.20
2023-04-02T20:14:21.430Z,0.95
2023-04-02T20:16:48.621Z,0.80
2023-04-02T20:19:15.830Z,1.20
2023-04-02T20:21:42.990Z,1.27
2023-04-02T20:24:10.093Z,1.13
2023-04-02T20:26:37.255Z,1.20
2023-04-02T20:29:04.898Z,0.88
2023-04-02T20:31:32.196Z,1.05
2023-04-02T20:34:00.057Z,1.30
2023-04-02T20:36:27.374Z,1.17
2023-04-02T20:38:56.736Z,0.90
2023-04-02T20:41:23.974Z,1.30
2023-04-02T20:43:51.361Z,1.15
2023-04-02T20:46:18.524Z,1.35
2023-04-02T20:48:45.782Z,1.00
2023-04-02T20:51:18.149Z,1.10
2023-04-02T20:53:46.023Z,1.23
2023-04-02T20:56:14.541Z,1.20
2023-04-02T20:58:42.455Z,1.17
2023-04-02T21:01:16.774Z,0.98
2023-04-02T21:03:44.296Z,1.33
2023-04-02T21:06:19.258Z,1.15
2023-04-02T21:08:46.775Z,1.45
2023-04-02T21:11:14.060Z,1.10
2023-04-02T21:13:43.881Z,1.70
2023-04-02T21:16:14.230Z,1.00
2023-04-02T21:18:41.400Z,1.30
2023-04-02T21:21:08.556Z,1.20
2023-04-02T21:23:35.785Z,1.20
2023-04-02T21:26:06.004Z,1.30
2023-04-02T21:28:33.647Z,1.20
2023-04-02T21:31:11.008Z,1.35
2023-04-02T21:33:42.279Z,1.20
2023-04-02T21:36:11.429Z,1.40
2023-04-02T21:38:42.389Z,1.08
2023-04-02T21:41:10.443Z,1.20
2023-04-02T21:43:38.022Z,1.27
2023-04-02T21:46:05.595Z,1.00
2023-04-02T21:48:32.947Z,1.30
2023-04-02T21:51:10.634Z,1.40
2023-04-02T21:53:37.780Z,1.30
2023-04-02T21:56:05.828Z,1.00
2023-04-02T21:58:33.045Z,1.20
2023-04-02T22:01:00.346Z,1.30
2023-04-02T22:03:31.675Z,1.35
2023-04-02T22:06:09.409Z,1.30
2023-04-02T22:08:37.142Z,1.10
2023-04-02T22:11:05.465Z,1.10
2023-04-02T22:13:32.661Z,1.52
2023-04-02T22:16:00.735Z,1.10
2023-04-02T22:18:27.956Z,1.20
2023-04-02T22:20:56.425Z,1.25
2023-04-02T22:23:25.519Z,1.50
2023-04-02T22:25:53.613Z,1.00
2023-04-02T22:28:21.243Z,1.42
2023-04-02T22:30:48.714Z,1.20
2023-04-02T22:33:16.101Z,1.20
2023-04-02T22:35:43.304Z,1.48
2023-04-02T22:38:11.116Z,1.30
2023-04-02T22:40:38.326Z,1.40
2023-04-02T22:43:05.715Z,1.27
2023-04-02T22:45:32.886Z,1.70
2023-04-02T22:48:00.087Z,1.30
2023-04-02T22:50:27.443Z,1.10
2023-04-02T22:52:54.659Z,0.95
2023-04-02T22:55:22.046Z,1.00
2023-04-02T22:57:49.819Z,1.15
2023-04-02T23:00:17.679Z,1.30
2023-04-02T23:02:45.595Z,1.20
2023-04-02T23:05:12.893Z,0.88
2023-04-02T23:07:40.515Z,1.30
2023-04-02T23:10:07.930Z,1.30
2023-04-02T23:12:35.336Z,1.20
2023-04-02T23:15:03.605Z,1.00
2023-04-02T23:17:30.840Z,1.13
2023-04-02T23:19:57.998Z,1.30
2023-04-02T23:22:25.129Z,1.20
2023-04-02T23:24:54.545Z,1.13
2023-04-02T23:27:23.678Z,1.23
2023-04-02T23:29:51.693Z,0.98
2023-04-02T23:32:19.745Z,1.15
2023-04-02T23:34:46.919Z,1.13
2023-04-02T23:37:14.018Z,1.10
2023-04-02T23:39:41.197Z,1.10
2023-04-02T23:42:09.021Z,1.27
2023-04-02T23:44:36.160Z,1.15
2023-04-02T23:47:03.320Z,1.00
2023-04-02T23:49:30.571Z,1.00
2023-04-02T23:51:57.669Z,1.20
2023-04-02T23:54:24.853Z,1.20
2023-04-02T23:56:51.978Z,1.00
2023-04-02T23:59:19.096Z,1.13
